WEATHER DATA

TODAY
Time Temp. Dewp. Hum. Wind dir Wind speed Wind gust Bar. 1h Prec. 24h Prec.
00:04 2.8 0.4 84 0 0 1017.6 0.0000 0.0000
00:14 2.7 0.3 84 0 0 1017.7 0.0000 0.0000
00:25 2.5 0.1 84 0 0 1017.6 0.0000 0.0000
00:35 2.4 0 84 0 0 1017.7 0.0000 0.0000
00:44 2.3 0 85 0 0 1017.8 0.0000 0.0000
00:54 2.2 0 85 0 0 1017.8 0.0000 0.0000
01:05 2.1 -0.1 85 0 0 1017.8 0.0000 0.0000
01:15 2 -0.2 85 0 0 1017.8 0.0000 0.0000
01:24 1.8 -0.4 85 0 0 1017.7 0.0000 0.0000
01:35 1.7 -0.5 85 0 0 1017.6 0.0000 0.0000
01:45 1.6 -0.4 86 0 0 1017.6 0.0000 0.0000
01:55 1.6 -0.4 86 0 0 1017.6 0.0000 0.0000
02:04 1.5 -0.4 87 0 0 1017.8 0.0000 0.0000
02:15 1.5 -0.4 87 0 0 1017.8 0.0000 0.0000
02:25 1.5 -0.4 87 0 0 1017.7 0.0000 0.0000
02:35 1.4 -0.5 87 0 0 1017.6 0.0000 0.0000
02:46 1.4 -0.5 87 0 0 1017.6 0.0000 0.0000
02:55 1.4 -0.5 87 0 0 1017.8 0.0000 0.0000
03:05 1.4 -0.5 87 0 0 1017.6 0.0000 0.0000
03:15 1.4 -0.5 87 0 0 1017.4 0.0000 0.0000
03:26 1.4 -0.5 87 0 0 1017.4 0.0000 0.0000
03:35 1.4 -0.3 88 0 0 1017.4 0.0000 0.0000
03:45 1.5 -0.2 88 0 0 1017.2 0.0000 0.0000
03:56 2.3 0.8 90 0 0 1017.3 0.0000 0.0000
04:06 3.3 1.7 89 0 0 1017.2 0.0000 0.0000
04:15 4.1 2 86 0 0 1017.1 0.0000 0.0000
04:25 5.1 2.1 81 0 0 1017.2 0.0000 0.0000
04:36 5.7 2.2 78 0 0 1017.3 0.0000 0.0000
04:46 6.1 2.2 76 0 0 1017.2 0.0000 0.0000
04:56 6.4 2.3 75 0 0 1017.4 0.0000 0.0000
05:06 6.7 2.4 74 0 0 1017.4 0.0000 0.0000
05:16 7 2.5 73 0 0 1017.6 0.0000 0.0000
05:26 7.2 2.7 73 0 0 1017.5 0.0000 0.0000
05:36 7.3 2.6 72 0 0 1017.4 0.0000 0.0000
05:47 7.3 2.6 72 0 0 1017.5 0.0000 0.0000
05:56 7.3 2.6 72 0 0 1017.6 0.0000 0.0000
06:10 7.4 2.7 72 0 0 1017.5 0.0000 0.0000
06:20 7.5 2.8 72 0 0 1017.5 0.0000 0.0000
06:30 7.6 2.9 72 0 0 1017.6 0.0000 0.0000
06:40 7.7 3 72 0 0 1017.6 0.0000 0.0000
06:50 7.7 3 72 0 0 1017.7 0.0000 0.0000
07:00 7.8 3.1 72 0 0 1017.7 0.0000 0.0000
07:10 7.8 3.1 72 0 0 1017.8 0.0000 0.0000
07:20 7.7 3.2 73 0 0 1017.8 0.0000 0.0000
07:40 7.7 3.2 73 0 0 1018 0.0000 0.0000
08:00 7.7 3.2 73 0 0 1018.3 0.0000 0.0000
08:10 7.8 3.3 73 0 0 1018.5 0.0000 0.0000
08:20 7.8 3.3 73 0 0 1018.5 0.0000 0.0000
08:31 7.8 3.3 73 0 0 1018.7 0.0000 0.0000
08:41 7.9 3.4 73 0 0 1018.6 0.0000 0.0000
09:01 7.9 3.2 72 0 0 1018.9 0.0000 0.0000
09:11 8 3.3 72 0 0 1019.1 0.0000 0.0000
09:21 7.9 3.2 72 0 0 1019.2 0.0000 0.0000
09:31 7.9 3.4 73 0 0 1019.3 0.0000 0.0000
09:42 7.8 3.5 74 0 0 1019.4 0.0000 0.0000
09:51 7.7 3.7 76 0 0 1019.6 0.0000 0.0000
10:01 7.5 3.9 78 0 0 1019.8 0.0000 0.0000
10:12 7.3 4.1 80 0 0 1020.1 0.1010 0.1000
10:24 7 4.3 83 0 0 1020 0.3030 0.3000
10:35 6.8 4.5 85 0 0 1020.1 0.3030 0.3000
10:44 6.7 4.5 86 0 0 1020.3 0.3030 0.3000
10:54 6.6 4.6 87 0 0 1020.3 0.4040 0.4000
11:04 6.4 4.6 88 0 0 1020.2 0.3030 0.4000
11:15 6.3 4.6 89 0 0 1020.3 0.3030 0.5000
11:25 6.3 4.6 89 0 0 1020.3 0.2020 0.5000
11:35 6.2 4.7 90 0 0 1020.5 0.3030 0.6000
11:45 6.2 4.8 91 0 0 1020.6 0.3030 0.6000
11:55 6.2 4.8 91 0 0 1020.6 0.2020 0.6000
12:05 6.2 4.8 91 0 0 1020.6 0.1010 0.6000
12:15 6.2 5 92 0 0 1020.6 0.1010 0.6000
12:26 6.3 5.1 92 0 0 1020.6 0.1010 0.6000
12:36 6.5 5.5 93 0 0 1020.6 0.0000 0.6000
12:46 6.7 5.6 93 0 0 1020.6 0.0000 0.6000
12:56 7 5.8 92 0 0 1020.4 0.0000 0.6000
13:06 7.2 6 92 0 0 1020.2 0.0000 0.6000
13:16 7.5 6 90 0 0 1020.2 0.0000 0.6000
13:26 7.9 6.2 89 0 0 1020.1 0.0000 0.6000
13:37 8.3 6.3 87 0 0 1020.1 0.0000 0.6000
13:47 8.9 6.5 85 0 0 1019.9 0.0000 0.6000
13:56 9.3 6.2 81 0 0 1020 0.0000 0.6000
14:06 9.7 6.2 79 0 0 1019.8 0.0000 0.6000
14:17 10.1 5.9 75 0 0 1019.8 0.0000 0.6000
14:27 10.3 6.1 75 0 0 1019.8 0.0000 0.6000
14:37 10.2 6 75 0 0 1019.7 0.0000 0.6000
14:47 10.3 6.3 76 0 0 1019.7 0.0000 0.6000
14:58 10.4 6.2 75 0 0 1019.7 0.0000 0.6000
15:07 10.4 6.2 75 0 0 1019.7 0.0000 0.6000
15:17 10.3 6.1 75 0 0 1019.8 0.0000 0.6000
15:28 10.1 5.9 75 0 0 1019.9 0.0000 0.6000
15:38 10.1 6.1 76 0 0 1020 0.0000 0.6000
15:48 10.2 6 75 0 0 1019.9 0.0000 0.6000
15:58 10.4 6 74 0 0 1019.9 0.0000 0.6000
16:09 10.4 5.8 73 0 0 1020 0.0000 0.6000
16:18 10.6 5.6 71 0 0 1019.7 0.0000 0.6000
16:28 10.7 5.5 70 0 0 1019.7 0.0000 0.6000
16:39 10.7 5.3 69 0 0 1020 0.0000 0.6000
16:49 10.6 5.2 69 0 0 1019.9 0.0000 0.6000
16:59 10.3 5.1 70 0 0 1019.8 0.0000 0.6000
17:09 10.1 5.1 71 0 0 1019.9 0.0000 0.6000
17:20 9.9 4.9 71 0 0 1020 0.0000 0.6000
17:29 9.7 4.7 71 0 0 1020.1 0.0000 0.6000

DAY STATISTIC

2019-02-19
TEMPERATURE
AVERAGE
6.5
HIGH
10.7
16:28
LOW
1.4
02:35
PRESSURE
AVERAGE
1018.8
HIGH
1020.6
11:45
LOW
1017.1
04:15
DEWPOINT
AVERAGE
3.3
HIGH
6.5
13:47
LOW
-0.5
01:35
HUMIDITY
AVERAGE
80
HIGH
93
12:36
LOW
69
16:39
WIND SPEED
AVERAGE
0.0
HIGH
0.0
16:35
WIND GUST
AVERAGE
0.0
HIGH
0.0
16:35
WIND DIRECTION
PREVAILING
%
PRECIPITATION
RAIN HOUR
0.4
RAIN DAY
0.6
TEMPERATURE (°C)
LOW
1.4
HIGH
10.7
AVERAGE
6.5
PRESSURE (hpa)
LOW
1017.1
HIGH
1020.6
AVERAGE
1018.8
DEVICE